Hlavní strana
METAR-TAF:

METAR-TAF

Letiště :

Gökçeada, Turecko

zeměpisná šířka: 40-12-04N, zeměpisná délka: 25-52-56E, výška: 22 m

Aktuální stav počasí

Zpráva byla vytvořena před 14 hodinami a 4 minutami, v 14:50 UTC
vítr z různých směrů 2 kt
Teplota 7°C
Vlhkost vzduchu 66%
Tlak 1030 hPa
Viditelnost 10 km a více
Žádná oblačnost pod 1500 m, nevyskytují se cumulonimby.

METAR: LTFK 241450Z VRB02KT CAVOK 07/01 Q1030

Čas: 07:54 (04:54 UTC)

Předpověď počasí

Zpráva byla vytvořena před 3 hodinami a 14 minutami, v 01:40 UTC
Předpověď platná od 25 v 03 UTC do 25 v 12 UTC
Jihojihovýchodní vítr 8 kt
Viditelnost 10 km a více
Žádná oblačnost pod 1500 m, nevyskytují se cumulonimby.

TAF: LTFK 250140Z 2503/2512 16008KT CAVOK

Stav a předpovědi počasí z více než 4 000 letišť (zprávy METAR a TAF).

Červené a žluté tečky na mapě představují dostupné meteorologické stanice.

Když kurzor umístíte na tečku, zobrazí se název stanice.

Pak kliknutím zobrazíte stav a předpověď počasí.

Chcete-li změnit mapu, kliknutím na zelené tlačítko se znaménkem +mapu přiblížíte, kliknutím na zelené tlačítko se znaménkem – mapu oddálíte a kliknutím na zelené šipky přejdete na sousední mapy.


METAR-TAF: